createdAt,value
2023-04-28T00:00:56.332Z,3.20
2023-04-28T00:03:24.626Z,3.30
2023-04-28T00:05:54.714Z,3.30
2023-04-28T00:08:25.975Z,3.30
2023-04-28T00:10:54.148Z,3.30
2023-04-28T00:13:22.354Z,3.40
2023-04-28T00:15:53.148Z,3.30
2023-04-28T00:18:21.606Z,3.30
2023-04-28T00:20:50.045Z,3.20
2023-04-28T00:23:18.185Z,3.00
2023-04-28T00:25:46.331Z,2.80
2023-04-28T00:28:26.885Z,2.60
2023-04-28T00:31:02.828Z,2.50
2023-04-28T00:33:31.069Z,2.50
2023-04-28T00:36:02.285Z,2.60
2023-04-28T00:38:30.439Z,2.40
2023-04-28T00:40:58.603Z,2.40
2023-04-28T00:43:26.772Z,2.40
2023-04-28T00:45:55.225Z,2.40
2023-04-28T00:48:25.212Z,2.50
2023-04-28T00:50:53.491Z,2.60
2023-04-28T00:53:22.346Z,2.60
2023-04-28T00:55:51.601Z,2.70
2023-04-28T00:58:20.674Z,2.60
2023-04-28T01:00:48.865Z,2.70
2023-04-28T01:03:17.247Z,2.60
2023-04-28T01:05:47.155Z,2.60
2023-04-28T01:08:15.294Z,2.50
2023-04-28T01:10:46.337Z,2.40
2023-04-28T01:13:14.508Z,2.30
2023-04-28T01:15:42.817Z,2.20
2023-04-28T01:18:11.493Z,2.20
2023-04-28T01:20:39.706Z,2.30
2023-04-28T01:23:13.362Z,2.20
2023-04-28T01:25:43.192Z,2.10
2023-04-28T01:28:12.165Z,2.10
2023-04-28T01:30:40.424Z,2.10
2023-04-28T01:33:08.625Z,2.10
2023-04-28T01:35:36.840Z,2.20
2023-04-28T01:38:05.029Z,2.00
2023-04-28T01:40:33.481Z,2.00
2023-04-28T01:43:02.997Z,2.00
2023-04-28T01:45:31.177Z,1.90
2023-04-28T01:47:59.353Z,2.10
2023-04-28T01:50:27.555Z,2.10
2023-04-28T01:52:55.813Z,2.00
2023-04-28T01:55:23.959Z,2.10
2023-04-28T01:57:52.108Z,2.10
2023-04-28T02:00:22.191Z,2.10
2023-04-28T02:02:50.439Z,2.10
2023-04-28T02:05:18.805Z,2.10
2023-04-28T02:07:47.292Z,2.10
2023-04-28T02:10:15.483Z,2.20
2023-04-28T02:12:43.802Z,2.20
2023-04-28T02:15:12.522Z,2.20
2023-04-28T02:17:42.118Z,2.20
2023-04-28T02:20:11.558Z,2.10
2023-04-28T02:22:39.681Z,2.10
2023-04-28T02:25:08.583Z,2.00
2023-04-28T02:27:38.314Z,2.00
2023-04-28T02:30:07.581Z,2.00
2023-04-28T02:32:35.869Z,1.90
2023-04-28T02:35:05.747Z,1.80
2023-04-28T02:37:33.872Z,1.80
2023-04-28T02:40:01.987Z,1.70
2023-04-28T02:42:30.112Z,1.60
2023-04-28T02:44:58.252Z,1.60
2023-04-28T02:47:26.788Z,1.60
2023-04-28T02:49:55.027Z,1.80
2023-04-28T02:52:24.804Z,1.70
2023-04-28T02:54:54.856Z,1.90
2023-04-28T02:57:23.034Z,1.90
2023-04-28T02:59:51.512Z,1.80
2023-04-28T03:02:20.734Z,1.90
2023-04-28T03:04:49.013Z,1.90
2023-04-28T03:07:17.334Z,1.90
2023-04-28T03:09:48.558Z,1.90
2023-04-28T03:12:16.698Z,1.80
2023-04-28T03:14:44.851Z,1.80
2023-04-28T03:17:14.322Z,1.90
2023-04-28T03:19:42.463Z,1.80
2023-04-28T03:22:10.642Z,1.70
2023-04-28T03:24:38.805Z,1.70
2023-04-28T03:27:08.299Z,1.70
2023-04-28T03:29:36.457Z,1.80
2023-04-28T03:32:04.681Z,1.80
2023-04-28T03:34:32.855Z,1.80
2023-04-28T03:37:01.066Z,1.70
2023-04-28T03:39:29.202Z,1.60
2023-04-28T03:41:57.340Z,1.60
2023-04-28T03:44:26.874Z,1.60
2023-04-28T03:46:55.215Z,1.70
2023-04-28T03:49:23.387Z,1.60
2023-04-28T03:51:52.262Z,1.60
2023-04-28T03:54:20.449Z,1.60
2023-04-28T03:56:48.653Z,1.50
2023-04-28T03:59:16.795Z,1.50
2023-04-28T04:01:46.313Z,1.60
2023-04-28T04:04:14.714Z,1.70
2023-04-28T04:06:43.195Z,1.80
2023-04-28T04:09:11.656Z,1.70
2023-04-28T04:11:39.844Z,1.80
2023-04-28T04:14:07.990Z,1.80
2023-04-28T04:16:37.480Z,1.80
2023-04-28T04:19:07.048Z,1.80
2023-04-28T04:21:35.293Z,2.00
2023-04-28T04:24:03.454Z,2.00
2023-04-28T04:26:31.636Z,2.00
2023-04-28T04:28:59.815Z,2.10
2023-04-28T04:31:28.042Z,2.00
2023-04-28T04:33:56.330Z,2.00
2023-04-28T04:36:26.370Z,2.10
2023-04-28T04:38:54.828Z,2.20
2023-04-28T04:41:24.465Z,2.30
2023-04-28T04:43:52.718Z,2.40
2023-04-28T04:46:21.001Z,2.40
2023-04-28T04:48:49.180Z,2.40
2023-04-28T04:51:17.297Z,2.50
2023-04-28T04:53:46.838Z,2.60
2023-04-28T04:56:15.149Z,2.70
2023-04-28T04:58:45.592Z,2.70
2023-04-28T05:01:13.771Z,2.60
2023-04-28T05:03:42.071Z,2.50
2023-04-28T05:06:10.291Z,2.50
2023-04-28T05:08:38.515Z,2.50
2023-04-28T05:11:08.102Z,2.70
2023-04-28T05:13:36.325Z,2.60
2023-04-28T05:16:04.795Z,2.70
2023-04-28T05:18:32.991Z,2.80
2023-04-28T05:21:01.665Z,2.90
2023-04-28T05:23:29.903Z,3.00
2023-04-28T05:25:58.093Z,3.10
2023-04-28T05:28:27.708Z,3.20
2023-04-28T05:30:55.864Z,3.20
2023-04-28T05:33:24.700Z,3.30
2023-04-28T05:35:52.852Z,3.40
2023-04-28T05:38:22.811Z,3.50
2023-04-28T05:40:51.604Z,3.40
2023-04-28T05:43:19.759Z,3.50
2023-04-28T05:45:49.401Z,3.70
2023-04-28T05:48:17.616Z,3.60
2023-04-28T05:50:45.801Z,3.70
2023-04-28T05:53:13.985Z,3.80
2023-04-28T05:55:42.196Z,4.00
2023-04-28T05:58:10.464Z,4.10
2023-04-28T06:00:38.653Z,4.20
2023-04-28T06:03:11.322Z,4.30
2023-04-28T06:05:39.964Z,4.40
2023-04-28T06:08:08.917Z,4.50
2023-04-28T06:10:37.115Z,4.70
2023-04-28T06:13:06.467Z,4.80
2023-04-28T06:15:34.776Z,5.00
2023-04-28T06:18:03.264Z,5.10
2023-04-28T06:20:32.894Z,5.30
2023-04-28T06:23:01.101Z,5.40
2023-04-28T06:25:29.294Z,5.50
2023-04-28T06:27:57.465Z,5.60
2023-04-28T06:30:26.200Z,5.70
2023-04-28T06:32:54.679Z,5.80
2023-04-28T06:35:23.641Z,6.00
2023-04-28T06:37:53.193Z,6.10
2023-04-28T06:40:21.448Z,6.20
2023-04-28T06:42:49.623Z,6.40
2023-04-28T06:45:17.870Z,6.50
2023-04-28T06:47:46.296Z,6.50
2023-04-28T06:50:14.533Z,6.70
2023-04-28T06:52:42.717Z,6.80
2023-04-28T06:55:17.146Z,6.90
2023-04-28T06:57:45.520Z,6.90
2023-04-28T07:00:15.127Z,7.10
2023-04-28T07:02:43.511Z,7.30
2023-04-28T07:05:13.038Z,7.40
2023-04-28T07:07:42.301Z,7.40
2023-04-28T07:10:13.341Z,7.50
2023-04-28T07:12:41.514Z,7.60
2023-04-28T07:15:10.627Z,7.80
2023-04-28T07:17:39.070Z,7.80
2023-04-28T07:20:08.491Z,7.90
2023-04-28T07:22:36.755Z,8.00
2023-04-28T07:25:06.102Z,8.00
2023-04-28T07:27:35.671Z,7.90
2023-04-28T07:30:11.918Z,8.00
2023-04-28T07:32:52.200Z,8.20
2023-04-28T07:35:20.505Z,8.30
2023-04-28T07:37:48.753Z,8.40
2023-04-28T07:40:17.798Z,8.50
2023-04-28T07:42:48.008Z,8.60
2023-04-28T07:45:16.956Z,8.70
2023-04-28T07:47:45.151Z,9.00
2023-04-28T07:50:13.687Z,8.90
2023-04-28T07:52:41.859Z,8.90
2023-04-28T07:55:10.561Z,9.00
2023-04-28T07:57:38.887Z,8.90
2023-04-28T08:00:11.541Z,9.20
2023-04-28T08:02:40.027Z,9.30
2023-04-28T08:05:09.864Z,9.30
2023-04-28T08:07:38.669Z,9.50
2023-04-28T08:10:07.599Z,9.60
2023-04-28T08:12:35.858Z,9.70
2023-04-28T08:15:04.178Z,9.80
2023-04-28T08:17:33.884Z,10.00
2023-04-28T08:20:02.054Z,10.20
2023-04-28T08:22:30.614Z,10.30
2023-04-28T08:24:58.840Z,10.50
2023-04-28T08:27:27.068Z,10.60
2023-04-28T08:29:55.260Z,10.40
2023-04-28T08:32:23.382Z,10.40
2023-04-28T08:34:52.927Z,10.60
2023-04-28T08:37:21.759Z,10.90
2023-04-28T08:39:49.909Z,11.10
2023-04-28T08:42:19.226Z,10.90
2023-04-28T08:44:49.214Z,11.10
2023-04-28T08:47:18.372Z,11.20
2023-04-28T08:49:47.722Z,11.40
2023-04-28T08:52:19.648Z,11.60
2023-04-28T08:54:50.378Z,11.60
2023-04-28T08:57:19.834Z,11.70
2023-04-28T08:59:48.790Z,11.60
2023-04-28T09:02:17.304Z,11.40
2023-04-28T09:04:46.081Z,11.00
2023-04-28T09:07:14.587Z,11.00
2023-04-28T09:09:45.386Z,11.10
2023-04-28T09:12:13.579Z,10.60
2023-04-28T09:14:41.873Z,11.20
2023-04-28T09:17:14.447Z,11.30
2023-04-28T09:19:43.853Z,11.00
2023-04-28T09:22:24.927Z,10.70
2023-04-28T09:24:56.419Z,10.70
2023-04-28T09:27:29.079Z,10.80
2023-04-28T09:29:57.399Z,10.80
2023-04-28T09:32:27.993Z,10.60
2023-04-28T09:34:57.744Z,10.60
2023-04-28T09:37:27.537Z,10.70
2023-04-28T09:39:57.221Z,10.90
2023-04-28T09:42:36.388Z,11.10
2023-04-28T09:45:05.975Z,11.60
2023-04-28T09:47:35.879Z,11.90
2023-04-28T09:50:06.410Z,11.80
2023-04-28T09:52:36.858Z,12.00
2023-04-28T09:55:08.797Z,11.40
2023-04-28T09:57:37.991Z,11.60
2023-04-28T10:00:09.126Z,12.00
2023-04-28T10:02:43.823Z,11.80
2023-04-28T10:05:13.113Z,11.60
2023-04-28T10:07:42.153Z,11.80
2023-04-28T10:10:14.871Z,11.80
2023-04-28T10:12:44.909Z,11.60
2023-04-28T10:15:14.742Z,12.00
2023-04-28T10:17:42.933Z,12.50
2023-04-28T10:20:12.609Z,12.70
2023-04-28T10:22:54.975Z,12.20
2023-04-28T10:25:29.863Z,12.60
2023-04-28T10:27:59.719Z,13.20
2023-04-28T10:30:30.363Z,13.10
2023-04-28T10:33:24.564Z,13.10
2023-04-28T10:35:53.012Z,12.80
2023-04-28T10:38:22.621Z,12.20
2023-04-28T10:40:53.831Z,12.30
2023-04-28T10:43:39.783Z,12.20
2023-04-28T10:46:09.466Z,11.90
2023-04-28T10:49:00.019Z,11.80
2023-04-28T10:51:33.192Z,12.30
2023-04-28T10:54:20.502Z,11.70
2023-04-28T10:57:21.378Z,11.60
2023-04-28T10:59:50.593Z,12.20
2023-04-28T11:02:44.516Z,12.60
2023-04-28T11:05:18.976Z,12.20
2023-04-28T11:08:33.330Z,12.10
2023-04-28T11:11:25.830Z,12.30
2023-04-28T11:13:56.626Z,12.30
2023-04-28T11:16:26.667Z,12.70
2023-04-28T11:19:03.212Z,12.90
2023-04-28T11:21:32.588Z,13.50
2023-04-28T11:24:00.809Z,13.40
2023-04-28T11:26:30.118Z,13.60
2023-04-28T11:28:59.993Z,13.40
2023-04-28T11:31:28.847Z,13.10
2023-04-28T11:34:04.908Z,13.30
2023-04-28T11:36:35.825Z,13.40
2023-04-28T11:39:07.909Z,13.30
2023-04-28T11:41:36.770Z,13.50
2023-04-28T11:44:13.637Z,13.10
2023-04-28T11:46:51.064Z,12.70
2023-04-28T11:49:20.628Z,12.40
2023-04-28T11:51:50.307Z,12.30
2023-04-28T11:54:22.901Z,12.20
2023-04-28T11:56:51.496Z,12.30
2023-04-28T11:59:25.722Z,12.20
2023-04-28T12:01:57.303Z,12.10
2023-04-28T12:04:29.965Z,12.20
2023-04-28T12:07:02.947Z,12.40
2023-04-28T12:09:31.226Z,12.80
2023-04-28T12:12:02.335Z,12.80
2023-04-28T12:14:35.416Z,13.00
2023-04-28T12:17:04.219Z,14.00
2023-04-28T12:19:44.838Z,13.90
2023-04-28T12:22:13.321Z,13.20
2023-04-28T12:24:41.579Z,12.70
2023-04-28T12:27:17.321Z,12.50
2023-04-28T12:29:49.417Z,12.80
2023-04-28T12:32:17.849Z,13.50
2023-04-28T12:34:47.500Z,13.60
2023-04-28T12:37:15.765Z,13.50
2023-04-28T12:39:44.216Z,13.90
2023-04-28T12:42:12.591Z,14.80
2023-04-28T12:44:40.908Z,15.30
2023-04-28T12:47:12.089Z,15.20
2023-04-28T12:49:41.201Z,14.60
2023-04-28T12:52:09.532Z,14.10
2023-04-28T12:54:37.967Z,14.00
2023-04-28T12:57:06.641Z,14.10
2023-04-28T12:59:35.017Z,14.30
2023-04-28T13:02:03.411Z,14.80
2023-04-28T13:04:33.512Z,15.20
2023-04-28T13:07:02.508Z,14.90
2023-04-28T13:09:30.743Z,15.20
2023-04-28T13:11:59.326Z,14.50
2023-04-28T13:14:28.127Z,13.70
2023-04-28T13:16:57.659Z,13.60
2023-04-28T13:19:25.825Z,14.50
2023-04-28T13:21:55.423Z,14.30
2023-04-28T13:24:23.584Z,14.90
2023-04-28T13:26:53.073Z,14.60
2023-04-28T13:29:21.633Z,14.60
2023-04-28T13:31:49.846Z,15.10
2023-04-28T13:34:18.971Z,16.10
2023-04-28T13:36:48.210Z,17.00
2023-04-28T13:39:20.284Z,16.80
2023-04-28T13:41:48.994Z,16.40
2023-04-28T13:44:17.347Z,15.30
2023-04-28T13:46:46.022Z,15.10
2023-04-28T13:49:14.537Z,15.00
2023-04-28T13:51:42.788Z,15.10
2023-04-28T13:54:11.708Z,14.90
2023-04-28T13:56:41.582Z,14.70
2023-04-28T13:59:09.783Z,14.60
2023-04-28T14:01:37.999Z,15.20
2023-04-28T14:04:06.932Z,15.30
2023-04-28T14:06:35.458Z,15.90
2023-04-28T14:09:03.729Z,16.70
2023-04-28T14:11:31.861Z,16.80
2023-04-28T14:14:01.384Z,16.60
2023-04-28T14:16:30.502Z,16.40
2023-04-28T14:19:02.190Z,16.10
2023-04-28T14:21:31.122Z,15.40
2023-04-28T14:23:59.329Z,15.00
2023-04-28T14:26:28.575Z,15.50
2023-04-28T14:28:56.816Z,15.70
2023-04-28T14:31:26.462Z,16.30
2023-04-28T14:33:54.629Z,17.40
2023-04-28T14:36:22.805Z,17.60
2023-04-28T14:38:51.004Z,18.30
2023-04-28T14:41:19.163Z,19.10
2023-04-28T14:43:47.953Z,18.80
2023-04-28T14:46:18.071Z,19.20
2023-04-28T14:48:47.685Z,19.50
2023-04-28T14:51:15.948Z,19.80
2023-04-28T14:53:44.232Z,21.10
2023-04-28T14:58:45.327Z,23.40
2023-04-28T15:01:13.568Z,22.00
2023-04-28T15:03:41.982Z,20.90
2023-04-28T15:06:11.922Z,20.90
2023-04-28T15:08:41.295Z,20.70
2023-04-28T15:11:09.709Z,20.60
2023-04-28T15:13:38.872Z,20.20
2023-04-28T15:16:08.701Z,19.60
2023-04-28T15:18:36.876Z,19.50
2023-04-28T15:21:05.307Z,19.20
2023-04-28T15:23:34.852Z,18.40
2023-04-28T15:26:03.671Z,17.50
2023-04-28T15:28:32.196Z,17.20
2023-04-28T15:31:00.333Z,16.80
2023-04-28T15:33:28.856Z,17.30
2023-04-28T15:35:56.993Z,18.00
2023-04-28T15:38:25.152Z,19.00
2023-04-28T15:40:54.687Z,19.60
2023-04-28T15:43:22.840Z,20.20
2023-04-28T15:45:51.616Z,20.80
2023-04-28T15:48:19.798Z,20.70
2023-04-28T15:50:48.015Z,21.00
2023-04-28T15:53:16.331Z,21.20
2023-04-28T15:55:45.669Z,20.80
2023-04-28T15:58:15.797Z,20.20
2023-04-28T16:00:45.916Z,19.40
2023-04-28T16:03:14.245Z,18.90
2023-04-28T16:05:42.495Z,19.10
2023-04-28T16:08:10.689Z,18.60
2023-04-28T16:10:41.255Z,19.20
2023-04-28T16:13:11.395Z,19.00
2023-04-28T16:15:41.893Z,19.40
2023-04-28T16:18:10.310Z,19.10
2023-04-28T16:20:39.074Z,19.40
2023-04-28T16:23:07.644Z,20.00
2023-04-28T16:25:35.966Z,19.80
2023-04-28T16:28:04.172Z,19.10
2023-04-28T16:30:32.760Z,19.20
2023-04-28T16:33:02.395Z,19.00
2023-04-28T16:35:30.812Z,19.00
2023-04-28T16:37:58.961Z,19.20
2023-04-28T16:40:27.184Z,19.00
2023-04-28T16:42:55.369Z,18.60
2023-04-28T16:45:23.660Z,18.70
2023-04-28T16:47:52.108Z,18.80
2023-04-28T16:50:21.752Z,18.70
2023-04-28T16:52:50.221Z,18.10
2023-04-28T16:55:18.888Z,18.30
2023-04-28T16:57:47.107Z,18.10
2023-04-28T17:00:16.340Z,18.10
2023-04-28T17:02:44.661Z,17.90
2023-04-28T17:05:13.323Z,17.90
2023-04-28T17:07:42.990Z,17.80
2023-04-28T17:10:11.997Z,17.80
2023-04-28T17:12:43.618Z,17.80
2023-04-28T17:15:15.349Z,17.70
2023-04-28T17:17:43.601Z,17.40
2023-04-28T17:20:16.634Z,17.30
2023-04-28T17:22:46.469Z,16.90
2023-04-28T17:25:16.091Z,16.70
2023-04-28T17:27:44.448Z,16.30
2023-04-28T17:30:13.287Z,16.00
2023-04-28T17:32:41.903Z,15.70
2023-04-28T17:35:10.781Z,15.40
2023-04-28T17:37:38.985Z,15.10
2023-04-28T17:40:10.145Z,15.00
2023-04-28T17:42:38.329Z,14.40
2023-04-28T17:45:07.584Z,14.30
2023-04-28T17:47:36.341Z,14.20
2023-04-28T17:50:05.130Z,14.10
2023-04-28T17:52:33.312Z,13.90
2023-04-28T17:55:01.521Z,13.70
2023-04-28T17:57:32.102Z,13.60
2023-04-28T18:00:00.274Z,13.50
2023-04-28T18:02:28.628Z,13.40
2023-04-28T18:04:56.891Z,13.20
2023-04-28T18:07:25.970Z,13.00
2023-04-28T18:09:57.093Z,12.80
2023-04-28T18:12:26.161Z,12.70
2023-04-28T18:14:55.753Z,12.40
2023-04-28T18:17:25.616Z,12.20
2023-04-28T18:19:56.813Z,11.80
2023-04-28T18:22:25.308Z,11.70
2023-04-28T18:24:54.309Z,11.70
2023-04-28T18:27:22.554Z,11.50
2023-04-28T18:29:51.025Z,11.40
2023-04-28T18:32:20.653Z,11.30
2023-04-28T18:34:49.617Z,11.20
2023-04-28T18:37:18.569Z,11.10
2023-04-28T18:39:47.083Z,11.00
2023-04-28T18:42:15.604Z,11.00
2023-04-28T18:44:44.117Z,10.90
2023-04-28T18:47:15.803Z,10.80
2023-04-28T18:49:46.131Z,10.70
2023-04-28T18:52:14.860Z,10.60
2023-04-28T18:54:45.045Z,10.50
2023-04-28T18:57:13.490Z,10.30
2023-04-28T18:59:41.675Z,10.20
2023-04-28T19:02:10.289Z,10.10
2023-04-28T19:04:42.048Z,10.10
2023-04-28T19:07:11.896Z,9.90
2023-04-28T19:09:40.176Z,9.80
2023-04-28T19:12:08.387Z,9.80
2023-04-28T19:14:36.963Z,9.80
2023-04-28T19:17:05.476Z,9.70
2023-04-28T19:19:35.065Z,9.70
2023-04-28T19:22:04.241Z,9.60
2023-04-28T19:24:34.126Z,9.50
2023-04-28T19:27:03.103Z,9.50
2023-04-28T19:29:31.747Z,9.50
2023-04-28T19:32:00.507Z,9.40
2023-04-28T19:34:28.977Z,9.30
2023-04-28T19:36:58.905Z,9.30
2023-04-28T19:39:29.250Z,9.30
2023-04-28T19:41:59.240Z,9.20
2023-04-28T19:44:27.888Z,9.10
2023-04-28T19:46:56.220Z,9.10
2023-04-28T19:49:24.614Z,9.10
2023-04-28T19:51:53.113Z,9.10
2023-04-28T19:54:21.629Z,9.00
2023-04-28T19:56:50.019Z,8.90
2023-04-28T19:59:21.176Z,8.90
2023-04-28T20:01:50.120Z,9.00
2023-04-28T20:04:19.189Z,8.90
2023-04-28T20:06:47.854Z,8.80
2023-04-28T20:09:16.600Z,8.80
2023-04-28T20:11:45.069Z,8.70
2023-04-28T20:14:13.961Z,8.60
2023-04-28T20:16:44.568Z,8.40
2023-04-28T20:19:12.925Z,8.50
2023-04-28T20:21:42.049Z,8.40
2023-04-28T20:24:10.340Z,8.70
2023-04-28T20:26:38.919Z,8.40
2023-04-28T20:29:08.519Z,8.40
2023-04-28T20:31:37.299Z,8.30
2023-04-28T20:34:07.731Z,8.30
2023-04-28T20:36:36.151Z,8.20
2023-04-28T20:39:04.530Z,8.20
2023-04-28T20:41:33.178Z,8.20
2023-04-28T20:44:01.356Z,8.20
2023-04-28T20:46:30.565Z,8.20
2023-04-28T20:48:59.539Z,8.20
2023-04-28T20:51:30.202Z,8.10
2023-04-28T20:53:59.053Z,8.10
2023-04-28T20:56:27.374Z,8.20
2023-04-28T20:58:55.908Z,8.20
2023-04-28T21:01:24.286Z,8.10
2023-04-28T21:03:52.887Z,8.10
2023-04-28T21:06:21.197Z,8.10
2023-04-28T21:08:50.792Z,8.00
2023-04-28T21:11:19.653Z,8.00
2023-04-28T21:13:48.158Z,7.90
2023-04-28T21:16:20.536Z,7.90
2023-04-28T21:18:49.934Z,7.90
2023-04-28T21:21:18.676Z,7.90
2023-04-28T21:23:47.108Z,7.90
2023-04-28T21:26:16.778Z,7.90
2023-04-28T21:28:44.977Z,7.80
2023-04-28T21:31:13.550Z,7.80
2023-04-28T21:33:41.707Z,7.70
2023-04-28T21:36:10.240Z,7.70
2023-04-28T21:38:39.061Z,7.70
2023-04-28T21:41:08.762Z,7.60
2023-04-28T21:43:39.281Z,7.70
2023-04-28T21:48:37.451Z,7.60
2023-04-28T21:51:05.938Z,7.60
2023-04-28T21:53:34.118Z,7.60
2023-04-28T21:56:03.351Z,7.60
2023-04-28T21:58:31.600Z,7.60
2023-04-28T22:01:01.928Z,7.60
2023-04-28T22:03:30.328Z,7.70
2023-04-28T22:05:58.950Z,7.60
2023-04-28T22:08:27.456Z,7.60
2023-04-28T22:10:55.637Z,7.50
2023-04-28T22:13:23.788Z,7.60
2023-04-28T22:15:52.073Z,7.50
2023-04-28T22:18:21.645Z,7.50
2023-04-28T22:20:50.915Z,7.50
2023-04-28T22:23:19.105Z,7.40
2023-04-28T22:25:47.945Z,7.40
2023-04-28T22:28:16.484Z,7.40
2023-04-28T22:30:46.381Z,7.30
2023-04-28T22:33:14.562Z,7.30
2023-04-28T22:35:44.123Z,7.40
2023-04-28T22:38:12.345Z,7.30
2023-04-28T22:40:40.523Z,7.20
2023-04-28T22:43:08.651Z,7.30
2023-04-28T22:45:36.790Z,7.20
2023-04-28T22:48:05.481Z,7.10
2023-04-28T22:50:33.786Z,7.00
2023-04-28T22:53:03.897Z,6.80
2023-04-28T22:55:32.208Z,6.70
2023-04-28T22:58:00.330Z,6.70
2023-04-28T23:00:28.606Z,6.70
2023-04-28T23:02:56.966Z,6.60
2023-04-28T23:05:25.172Z,6.60
2023-04-28T23:07:53.319Z,6.60
2023-04-28T23:10:22.860Z,6.60
2023-04-28T23:12:50.998Z,6.50
2023-04-28T23:15:19.233Z,6.40
2023-04-28T23:17:47.399Z,6.40
2023-04-28T23:20:16.080Z,6.30
2023-04-28T23:22:44.209Z,6.30
2023-04-28T23:25:12.540Z,6.30
2023-04-28T23:27:42.072Z,6.30
2023-04-28T23:30:11.809Z,6.20
2023-04-28T23:32:39.968Z,6.30
2023-04-28T23:35:08.673Z,6.40
2023-04-28T23:37:36.833Z,6.30
2023-04-28T23:40:05.516Z,6.30
2023-04-28T23:42:33.736Z,6.20
2023-04-28T23:45:03.302Z,6.10
2023-04-28T23:47:31.518Z,6.20
2023-04-28T23:49:59.680Z,6.10
2023-04-28T23:52:27.912Z,6.10
2023-04-28T23:54:56.141Z,6.00
2023-04-28T23:57:24.784Z,6.10
2023-04-28T23:59:53.424Z,6.10
